createdAt,value
2019-03-10T00:02:28.338Z,12.09
2019-03-10T00:05:00.033Z,12.36
2019-03-10T00:07:30.314Z,12.58
2019-03-10T00:10:00.887Z,12.38
2019-03-10T00:12:31.678Z,12.18
2019-03-10T00:15:01.999Z,12.40
2019-03-10T00:17:32.378Z,12.66
2019-03-10T00:20:03.112Z,12.51
2019-03-10T00:22:33.469Z,12.43
2019-03-10T00:25:03.796Z,12.40
2019-03-10T00:27:34.548Z,12.42
2019-03-10T00:30:05.590Z,12.23
2019-03-10T00:32:35.897Z,12.18
2019-03-10T00:35:06.755Z,11.68
2019-03-10T00:37:37.478Z,11.80
2019-03-10T00:40:43.482Z,11.45
2019-03-10T00:43:45.583Z,11.46
2019-03-10T00:46:41.768Z,11.25
2019-03-10T00:50:04.692Z,11.20
2019-03-10T00:52:39.371Z,11.39
2019-03-10T00:55:09.976Z,11.11
2019-03-10T00:57:40.420Z,11.02
2019-03-10T01:00:16.235Z,11.00
2019-03-10T01:02:46.765Z,10.97
2019-03-10T01:05:18.009Z,11.16
2019-03-10T01:07:48.912Z,10.86
2019-03-10T01:10:19.235Z,10.91
2019-03-10T01:12:50.128Z,11.08
2019-03-10T01:15:20.535Z,11.15
2019-03-10T01:17:52.221Z,10.71
2019-03-10T01:20:22.784Z,10.91
2019-03-10T01:22:53.464Z,10.93
2019-03-10T01:25:24.870Z,10.98
2019-03-10T01:27:55.283Z,10.88
2019-03-10T01:30:26.005Z,11.10
2019-03-10T01:33:34.727Z,10.99
2019-03-10T01:36:14.596Z,11.03
2019-03-10T01:38:45.230Z,10.99
2019-03-10T01:41:15.604Z,11.09
2019-03-10T01:43:46.156Z,10.95
2019-03-10T01:46:16.570Z,10.96
2019-03-10T01:48:46.934Z,11.08
2019-03-10T01:51:17.339Z,11.02
2019-03-10T01:53:47.820Z,11.01
2019-03-10T01:56:18.143Z,11.08
2019-03-10T01:58:48.923Z,11.16
2019-03-10T02:01:19.662Z,11.24
2019-03-10T02:03:50.010Z,11.14
2019-03-10T02:06:20.560Z,11.12
2019-03-10T02:08:50.843Z,11.23
2019-03-10T02:11:21.615Z,11.15
2019-03-10T02:13:51.949Z,11.13
2019-03-10T02:16:22.344Z,11.18
2019-03-10T02:18:54.087Z,11.26
2019-03-10T02:21:24.709Z,11.28
2019-03-10T02:23:54.987Z,11.23
2019-03-10T02:26:25.721Z,11.24
2019-03-10T02:28:56.345Z,11.24
2019-03-10T02:31:26.617Z,11.38
2019-03-10T02:33:56.969Z,11.51
2019-03-10T02:36:27.732Z,11.43
2019-03-10T02:38:58.117Z,11.41
2019-03-10T02:41:28.788Z,11.37
2019-03-10T02:44:00.062Z,11.42
2019-03-10T02:46:30.437Z,11.45
2019-03-10T02:49:02.100Z,11.44
2019-03-10T02:51:32.398Z,11.59
2019-03-10T02:54:02.939Z,11.64
2019-03-10T02:56:33.686Z,11.58
2019-03-10T02:59:04.072Z,11.70
2019-03-10T03:01:34.400Z,11.63
2019-03-10T03:04:05.202Z,11.68
2019-03-10T03:06:35.675Z,11.60
2019-03-10T03:09:07.238Z,11.66
2019-03-10T03:11:39.608Z,11.45
2019-03-10T03:14:09.978Z,11.68
2019-03-10T03:16:41.330Z,11.54
2019-03-10T03:19:11.648Z,11.55
2019-03-10T03:21:43.746Z,11.57
2019-03-10T03:24:14.459Z,11.62
2019-03-10T03:26:44.781Z,11.23
2019-03-10T03:29:15.053Z,11.40
2019-03-10T03:31:45.958Z,11.42
2019-03-10T03:34:16.394Z,11.45
2019-03-10T03:36:46.684Z,11.24
2019-03-10T03:39:26.206Z,11.34
2019-03-10T03:41:57.029Z,11.41
2019-03-10T03:44:27.357Z,11.33
2019-03-10T03:46:57.658Z,11.42
2019-03-10T03:49:27.965Z,11.55
2019-03-10T03:51:58.694Z,11.55
2019-03-10T03:54:29.243Z,11.52
2019-03-10T03:56:59.588Z,11.61
2019-03-10T03:59:30.284Z,11.68
2019-03-10T04:02:32.591Z,11.50
2019-03-10T04:05:02.919Z,11.37
2019-03-10T04:07:33.470Z,11.47
2019-03-10T04:10:04.523Z,11.54
2019-03-10T04:12:34.803Z,11.57
2019-03-10T04:15:05.472Z,11.23
2019-03-10T04:17:37.305Z,11.38
2019-03-10T04:20:08.077Z,11.52
2019-03-10T04:22:38.695Z,11.30
2019-03-10T04:25:09.192Z,11.40
2019-03-10T04:27:39.912Z,11.60
2019-03-10T04:30:11.001Z,11.43
2019-03-10T04:32:41.337Z,11.43
2019-03-10T04:35:11.865Z,11.37
2019-03-10T04:37:42.536Z,11.29
2019-03-10T04:40:12.804Z,11.38
2019-03-10T04:42:43.121Z,11.45
2019-03-10T04:45:14.375Z,11.57
2019-03-10T04:47:44.716Z,11.31
2019-03-10T04:50:16.441Z,11.43
2019-03-10T04:52:47.008Z,11.37
2019-03-10T04:55:25.733Z,11.15
2019-03-10T04:58:04.395Z,11.42
2019-03-10T05:00:36.639Z,11.06
2019-03-10T05:03:07.040Z,11.05
2019-03-10T05:05:37.347Z,11.12
2019-03-10T05:08:08.044Z,11.16
2019-03-10T05:10:38.431Z,11.23
2019-03-10T05:13:08.749Z,11.30
2019-03-10T05:15:40.125Z,11.39
2019-03-10T05:18:10.671Z,11.46
2019-03-10T05:20:40.966Z,11.65
2019-03-10T05:23:38.164Z,11.68
2019-03-10T05:26:08.546Z,11.53
2019-03-10T05:28:45.359Z,11.67
2019-03-10T05:31:16.275Z,11.71
2019-03-10T05:33:46.664Z,11.74
2019-03-10T05:36:17.471Z,11.69
2019-03-10T05:38:47.848Z,11.77
2019-03-10T05:41:18.165Z,11.69
2019-03-10T05:43:48.498Z,11.76
2019-03-10T05:46:19.265Z,11.63
2019-03-10T05:48:49.581Z,11.93
2019-03-10T05:51:19.906Z,11.92
2019-03-10T05:53:50.388Z,11.69
2019-03-10T05:56:20.942Z,11.81
2019-03-10T05:58:51.719Z,11.90
2019-03-10T06:01:22.042Z,11.98
2019-03-10T06:03:52.476Z,12.00
2019-03-10T06:06:23.167Z,12.06
2019-03-10T06:08:53.469Z,12.23
2019-03-10T06:11:23.779Z,12.33
2019-03-10T06:13:54.183Z,12.47
2019-03-10T06:16:24.506Z,12.26
2019-03-10T06:18:54.819Z,12.48
2019-03-10T06:21:25.446Z,12.57
2019-03-10T06:23:55.900Z,12.60
2019-03-10T06:26:27.146Z,12.71
2019-03-10T06:28:57.416Z,12.69
2019-03-10T06:31:27.920Z,12.64
2019-03-10T06:33:58.628Z,12.67
2019-03-10T06:36:29.039Z,12.93
2019-03-10T06:38:59.320Z,12.96
2019-03-10T06:41:29.719Z,12.95
2019-03-10T06:44:00.034Z,12.98
2019-03-10T06:46:30.461Z,13.49
2019-03-10T06:49:01.156Z,13.46
2019-03-10T06:51:31.820Z,13.65
2019-03-10T06:54:02.169Z,13.58
2019-03-10T06:56:32.971Z,13.70
2019-03-10T06:59:03.369Z,13.31
2019-03-10T07:01:33.958Z,13.53
2019-03-10T07:04:04.516Z,13.52
2019-03-10T07:06:34.837Z,13.56
2019-03-10T07:09:06.166Z,13.69
2019-03-10T07:11:36.940Z,13.70
2019-03-10T07:14:08.384Z,13.85
2019-03-10T07:16:39.213Z,13.78
2019-03-10T07:19:09.977Z,13.94
2019-03-10T07:21:40.454Z,13.55
2019-03-10T07:24:11.213Z,13.67
2019-03-10T07:26:41.969Z,13.83
2019-03-10T07:29:25.395Z,13.82
2019-03-10T07:32:18.014Z,13.97
2019-03-10T07:35:01.358Z,14.25
2019-03-10T07:37:54.952Z,14.10
2019-03-10T07:40:47.306Z,14.27
2019-03-10T07:43:48.595Z,14.33
2019-03-10T07:46:37.893Z,14.52
2019-03-10T07:49:14.184Z,14.59
2019-03-10T07:52:22.050Z,14.73
2019-03-10T07:55:14.284Z,14.61
2019-03-10T07:58:04.085Z,14.44
2019-03-10T08:01:02.491Z,14.57
2019-03-10T08:03:55.898Z,14.84
2019-03-10T08:06:41.166Z,14.37
2019-03-10T08:09:27.351Z,14.57
2019-03-10T08:12:09.493Z,14.58
2019-03-10T08:14:46.365Z,14.48
2019-03-10T08:17:34.043Z,14.54
2019-03-10T08:20:21.842Z,14.58
2019-03-10T08:23:00.885Z,14.64
2019-03-10T08:25:59.656Z,14.79
2019-03-10T08:28:35.867Z,14.63
2019-03-10T08:31:21.723Z,14.67
2019-03-10T08:34:13.785Z,14.95
2019-03-10T08:36:57.615Z,14.86
2019-03-10T08:39:37.648Z,14.70
2019-03-10T08:42:23.093Z,14.84
2019-03-10T08:45:01.699Z,14.92
2019-03-10T08:48:03.183Z,14.90
2019-03-10T08:50:50.180Z,14.90
2019-03-10T08:53:29.226Z,15.03
2019-03-10T08:56:21.419Z,15.05
2019-03-10T08:59:23.228Z,14.92
2019-03-10T09:02:01.921Z,15.06
2019-03-10T09:04:44.042Z,14.96
2019-03-10T09:07:39.825Z,15.22
2019-03-10T09:10:21.767Z,15.19
2019-03-10T09:13:00.535Z,15.39
2019-03-10T09:15:47.044Z,15.23
2019-03-10T09:18:38.159Z,15.40
2019-03-10T09:21:33.162Z,15.50
2019-03-10T09:24:26.214Z,15.17
2019-03-10T09:27:05.214Z,15.24
2019-03-10T09:29:52.668Z,15.76
2019-03-10T09:32:36.797Z,15.73
2019-03-10T09:35:23.932Z,15.76
2019-03-10T09:38:09.710Z,15.89
2019-03-10T09:40:58.980Z,16.31
2019-03-10T09:43:47.510Z,16.06
2019-03-10T09:46:37.224Z,15.92
2019-03-10T09:49:21.847Z,16.43
2019-03-10T09:52:02.972Z,16.14
2019-03-10T09:55:01.131Z,16.92
2019-03-10T09:57:52.660Z,17.10
2019-03-10T10:00:29.815Z,17.29
2019-03-10T10:03:11.723Z,17.29
2019-03-10T10:05:59.950Z,17.72
2019-03-10T10:08:55.181Z,17.93
2019-03-10T10:11:44.535Z,18.20
2019-03-10T10:14:34.154Z,17.81
2019-03-10T10:17:15.028Z,18.41
2019-03-10T10:20:12.891Z,17.41
2019-03-10T10:23:00.852Z,17.98
2019-03-10T10:25:43.310Z,17.49
2019-03-10T10:28:32.562Z,17.44
2019-03-10T10:31:17.544Z,17.80
2019-03-10T10:33:57.648Z,17.80
2019-03-10T10:36:50.270Z,17.83
2019-03-10T10:39:45.426Z,17.89
2019-03-10T10:42:52.839Z,18.16
2019-03-10T10:45:34.268Z,18.05
2019-03-10T10:48:38.869Z,18.45
2019-03-10T10:51:29.673Z,18.01
2019-03-10T10:54:23.494Z,18.37
2019-03-10T10:57:01.151Z,18.40
2019-03-10T10:59:38.532Z,17.90
2019-03-10T11:02:20.633Z,18.23
2019-03-10T11:05:14.246Z,18.57
2019-03-10T11:08:15.641Z,18.39
2019-03-10T11:11:16.860Z,18.66
2019-03-10T11:14:08.848Z,18.87
2019-03-10T11:17:13.115Z,18.85
2019-03-10T11:20:08.910Z,18.56
2019-03-10T11:22:47.608Z,19.11
2019-03-10T11:25:29.299Z,18.75
2019-03-10T11:28:26.503Z,19.27
2019-03-10T11:31:16.009Z,19.25
2019-03-10T11:34:12.577Z,19.39
2019-03-10T11:37:01.227Z,19.03
2019-03-10T11:39:50.536Z,19.72
2019-03-10T11:42:55.150Z,19.30
2019-03-10T11:45:39.689Z,19.59
2019-03-10T11:48:27.973Z,19.61
2019-03-10T11:51:20.138Z,19.39
2019-03-10T11:54:12.418Z,19.69
2019-03-10T11:57:08.580Z,19.66
2019-03-10T12:00:03.837Z,19.76
2019-03-10T12:02:51.279Z,20.20
2019-03-10T12:05:43.161Z,19.73
2019-03-10T12:08:32.461Z,19.44
2019-03-10T12:11:02.901Z,19.14
2019-03-10T12:13:33.248Z,19.32
2019-03-10T12:16:03.641Z,19.57
2019-03-10T12:18:33.924Z,20.15
2019-03-10T12:21:04.719Z,20.32
2019-03-10T12:23:36.328Z,19.76
2019-03-10T12:26:06.720Z,19.93
2019-03-10T12:28:37.188Z,20.05
2019-03-10T12:31:07.956Z,19.86
2019-03-10T12:33:38.234Z,19.99
2019-03-10T12:36:08.764Z,20.42
2019-03-10T12:38:39.416Z,20.54
2019-03-10T12:41:09.758Z,20.22
2019-03-10T12:43:40.049Z,20.04
2019-03-10T12:46:10.631Z,20.02
2019-03-10T12:48:40.935Z,20.34
2019-03-10T12:51:11.921Z,20.40
2019-03-10T12:53:42.262Z,21.06
2019-03-10T12:56:12.891Z,21.43
2019-03-10T12:58:43.691Z,21.31
2019-03-10T13:01:14.015Z,20.97
2019-03-10T13:03:44.415Z,21.14
2019-03-10T13:06:15.158Z,20.54
2019-03-10T13:08:45.586Z,20.55
2019-03-10T13:11:15.890Z,21.07
2019-03-10T13:13:46.603Z,20.75
2019-03-10T13:16:17.142Z,20.68
2019-03-10T13:18:47.420Z,21.32
2019-03-10T13:21:18.171Z,21.68
2019-03-10T13:23:48.469Z,21.51
2019-03-10T13:26:19.075Z,21.64
2019-03-10T13:28:49.388Z,21.68
2019-03-10T13:31:19.660Z,21.90
2019-03-10T13:33:50.245Z,21.46
2019-03-10T13:36:20.739Z,21.61
2019-03-10T13:38:51.053Z,21.74
2019-03-10T13:41:21.723Z,22.01
2019-03-10T13:43:52.362Z,21.45
2019-03-10T13:46:22.646Z,21.91
2019-03-10T13:48:53.254Z,21.56
2019-03-10T13:51:24.225Z,21.62
2019-03-10T13:53:54.553Z,21.49
2019-03-10T13:56:24.917Z,21.53
2019-03-10T13:58:55.688Z,21.90
2019-03-10T14:01:25.963Z,21.47
2019-03-10T14:03:56.249Z,21.36
2019-03-10T14:06:26.933Z,20.66
2019-03-10T14:08:57.241Z,20.67
2019-03-10T14:11:27.543Z,20.93
2019-03-10T14:13:58.150Z,21.00
2019-03-10T14:16:28.463Z,21.24
2019-03-10T14:18:58.780Z,21.23
2019-03-10T14:21:29.419Z,21.71
2019-03-10T14:23:59.849Z,21.42
2019-03-10T14:26:30.556Z,21.35
2019-03-10T14:29:00.877Z,21.05
2019-03-10T14:31:31.195Z,20.21
2019-03-10T14:34:01.813Z,20.33
2019-03-10T14:36:32.314Z,19.77
2019-03-10T14:39:04.681Z,19.75
2019-03-10T14:41:37.030Z,19.83
2019-03-10T14:44:07.720Z,19.73
2019-03-10T14:46:38.003Z,19.67
2019-03-10T14:49:08.605Z,19.49
2019-03-10T14:51:39.401Z,19.77
2019-03-10T14:54:09.692Z,19.81
2019-03-10T14:56:40.201Z,19.93
2019-03-10T14:59:10.481Z,19.55
2019-03-10T15:01:41.151Z,19.52
2019-03-10T15:04:11.571Z,19.81
2019-03-10T15:06:41.843Z,19.52
2019-03-10T15:09:12.547Z,19.43
2019-03-10T15:11:43.393Z,19.69
2019-03-10T15:14:13.726Z,19.81
2019-03-10T15:16:44.167Z,19.77
2019-03-10T15:19:14.760Z,19.81
2019-03-10T15:21:45.117Z,19.60
2019-03-10T15:24:15.401Z,19.57
2019-03-10T15:26:46.245Z,19.50
2019-03-10T15:29:16.694Z,19.64
2019-03-10T15:31:47.106Z,19.22
2019-03-10T15:34:17.407Z,19.37
2019-03-10T15:36:47.724Z,19.25
2019-03-10T15:39:18.113Z,19.12
2019-03-10T15:41:48.466Z,18.85
2019-03-10T15:44:18.769Z,19.05
2019-03-10T15:46:49.295Z,19.14
2019-03-10T15:49:19.569Z,18.96
2019-03-10T15:51:50.151Z,18.95
2019-03-10T15:54:20.745Z,18.86
2019-03-10T15:56:51.240Z,18.92
2019-03-10T15:59:21.608Z,18.75
2019-03-10T16:01:52.288Z,18.58
2019-03-10T16:04:23.393Z,18.42
2019-03-10T16:06:53.762Z,18.67
2019-03-10T16:09:24.099Z,18.56
2019-03-10T16:11:54.374Z,18.48
2019-03-10T16:14:25.160Z,18.33
2019-03-10T16:16:55.584Z,18.45
2019-03-10T16:19:25.932Z,18.23
2019-03-10T16:21:56.680Z,18.05
2019-03-10T16:24:27.296Z,18.23
2019-03-10T16:26:57.700Z,18.15
2019-03-10T16:29:28.370Z,18.14
2019-03-10T16:31:58.867Z,17.94
2019-03-10T16:34:29.181Z,18.00
2019-03-10T16:36:59.702Z,18.15
2019-03-10T16:39:30.193Z,17.91
2019-03-10T16:42:00.923Z,17.96
2019-03-10T16:44:31.758Z,17.86
2019-03-10T16:47:02.041Z,17.95
2019-03-10T16:49:32.805Z,17.68
2019-03-10T16:52:03.556Z,17.71
2019-03-10T16:54:33.902Z,17.62
2019-03-10T16:57:04.501Z,17.79
2019-03-10T16:59:35.232Z,17.82
2019-03-10T17:02:05.800Z,17.83
2019-03-10T17:04:36.260Z,17.70
2019-03-10T17:07:06.614Z,17.69
2019-03-10T17:09:37.039Z,17.50
2019-03-10T17:12:07.519Z,17.63
2019-03-10T17:14:37.919Z,17.50
2019-03-10T17:17:08.449Z,17.58
2019-03-10T17:19:39.143Z,17.44
2019-03-10T17:22:09.534Z,17.43
2019-03-10T17:24:39.831Z,17.47
2019-03-10T17:27:10.462Z,17.38
2019-03-10T17:29:40.735Z,17.37
2019-03-10T17:32:11.167Z,17.38
2019-03-10T17:34:41.704Z,17.30
2019-03-10T17:37:12.326Z,17.40
2019-03-10T17:39:42.976Z,17.40
2019-03-10T17:42:13.288Z,17.34
2019-03-10T17:44:43.694Z,17.34
2019-03-10T17:47:14.394Z,17.37
2019-03-10T17:49:44.696Z,17.31
2019-03-10T17:52:15.054Z,17.38
2019-03-10T17:54:45.840Z,17.35
2019-03-10T17:57:16.372Z,17.42
2019-03-10T17:59:46.698Z,17.38
2019-03-10T18:02:17.325Z,17.40
2019-03-10T18:04:47.883Z,17.32
2019-03-10T18:07:18.240Z,17.35
2019-03-10T18:09:48.644Z,17.38
2019-03-10T18:12:19.032Z,17.40
2019-03-10T18:14:49.356Z,17.40
2019-03-10T18:17:19.790Z,17.49
2019-03-10T18:19:50.314Z,17.49
2019-03-10T18:22:20.860Z,17.39
2019-03-10T18:24:51.149Z,17.44
2019-03-10T18:27:21.815Z,17.44
2019-03-10T18:29:52.406Z,17.43
2019-03-10T18:32:22.682Z,17.51
2019-03-10T18:34:53.131Z,17.49
2019-03-10T18:37:23.474Z,17.53
2019-03-10T18:39:53.742Z,17.53
2019-03-10T18:42:24.207Z,17.53
2019-03-10T18:44:54.500Z,17.43
2019-03-10T18:47:25.160Z,17.46
2019-03-10T18:49:55.697Z,17.38
2019-03-10T18:52:26.162Z,17.40
2019-03-10T18:54:56.810Z,17.40
2019-03-10T18:57:27.450Z,17.47
2019-03-10T18:59:57.855Z,17.50
2019-03-10T19:02:29.566Z,17.45
2019-03-10T19:05:00.418Z,17.41
2019-03-10T19:07:30.859Z,17.40
2019-03-10T19:10:01.586Z,17.31
2019-03-10T19:12:33.208Z,17.45
2019-03-10T19:15:03.552Z,17.38
2019-03-10T19:17:34.187Z,17.42
2019-03-10T19:20:05.052Z,17.40
2019-03-10T19:22:35.863Z,17.40
2019-03-10T19:25:06.795Z,17.35
2019-03-10T19:27:37.121Z,17.32
2019-03-10T19:30:08.788Z,17.24
2019-03-10T19:32:39.417Z,17.19
2019-03-10T19:35:09.884Z,17.19
2019-03-10T19:37:41.390Z,17.14
2019-03-10T19:40:13.861Z,17.08
2019-03-10T19:42:44.245Z,17.08
2019-03-10T19:45:15.642Z,17.08
2019-03-10T19:47:46.186Z,16.98
2019-03-10T19:50:16.927Z,16.98
2019-03-10T19:52:47.815Z,16.98
2019-03-10T19:55:18.308Z,16.84
2019-03-10T19:57:48.760Z,16.86
2019-03-10T20:00:19.615Z,16.86
2019-03-10T20:02:50.173Z,16.98
2019-03-10T20:05:20.608Z,16.91
2019-03-10T20:07:51.301Z,16.78
2019-03-10T20:10:21.625Z,16.88
2019-03-10T20:12:51.996Z,16.91
2019-03-10T20:15:22.833Z,16.89
2019-03-10T20:17:53.398Z,16.80
2019-03-10T20:20:23.741Z,16.96
2019-03-10T20:22:54.492Z,16.95
2019-03-10T20:25:25.162Z,16.75
2019-03-10T20:27:55.530Z,16.80
2019-03-10T20:30:26.372Z,16.77
2019-03-10T20:35:25.816Z,16.80
2019-03-10T20:37:56.154Z,16.70
2019-03-10T20:40:26.905Z,16.71
2019-03-10T20:42:57.275Z,16.51
2019-03-10T20:45:27.608Z,16.53
2019-03-10T20:47:58.347Z,16.56
2019-03-10T20:50:28.858Z,16.69
2019-03-10T20:52:59.507Z,16.53
2019-03-10T20:55:29.845Z,16.33
2019-03-10T20:58:00.314Z,16.30
2019-03-10T21:00:31.195Z,16.38
2019-03-10T21:03:02.636Z,16.51
2019-03-10T21:05:33.027Z,16.39
2019-03-10T21:08:03.756Z,16.24
2019-03-10T21:10:34.106Z,16.31
2019-03-10T21:13:04.392Z,16.30
2019-03-10T21:15:35.041Z,16.50
2019-03-10T21:18:05.854Z,16.31
2019-03-10T21:20:36.133Z,16.44
2019-03-10T21:23:06.932Z,16.35
2019-03-10T21:25:37.260Z,16.38
2019-03-10T21:28:07.892Z,16.28
2019-03-10T21:30:38.460Z,16.29
2019-03-10T21:33:08.818Z,16.22
2019-03-10T21:35:39.490Z,16.32
2019-03-10T21:38:09.903Z,16.13
2019-03-10T21:40:40.189Z,16.19
2019-03-10T21:43:10.980Z,16.02
2019-03-10T21:45:41.662Z,16.07
2019-03-10T21:48:12.064Z,15.99
2019-03-10T21:50:42.512Z,16.03
2019-03-10T21:53:13.190Z,15.99
2019-03-10T21:55:43.554Z,16.10
2019-03-10T21:58:14.132Z,15.91
2019-03-10T22:00:44.497Z,15.92
2019-03-10T22:03:15.254Z,15.78
2019-03-10T22:05:46.113Z,15.37
2019-03-10T22:08:16.466Z,14.70
2019-03-10T22:10:46.858Z,14.52
2019-03-10T22:13:17.381Z,14.29
2019-03-10T22:15:47.680Z,14.18
2019-03-10T22:18:18.038Z,13.97
2019-03-10T22:20:48.967Z,13.98
2019-03-10T22:23:19.398Z,13.91
2019-03-10T22:25:49.878Z,13.99
2019-03-10T22:28:20.619Z,13.83
2019-03-10T22:30:51.230Z,13.90
2019-03-10T22:33:21.571Z,14.31
2019-03-10T22:35:52.402Z,14.34
2019-03-10T22:38:23.096Z,14.08
2019-03-10T22:40:53.433Z,13.78
2019-03-10T22:43:23.959Z,13.63
2019-03-10T22:45:54.370Z,13.48
2019-03-10T22:48:24.662Z,13.24
2019-03-10T22:50:56.203Z,13.24
2019-03-10T22:53:26.895Z,13.16
2019-03-10T22:55:57.224Z,13.02
2019-03-10T22:58:27.535Z,12.91
2019-03-10T23:00:59.903Z,12.91
2019-03-10T23:03:32.181Z,12.89
2019-03-10T23:06:02.753Z,12.87
2019-03-10T23:08:33.071Z,12.86
2019-03-10T23:11:03.519Z,12.88
2019-03-10T23:13:33.905Z,12.92
2019-03-10T23:16:04.322Z,13.02
2019-03-10T23:18:34.642Z,12.92
2019-03-10T23:21:05.061Z,12.95
2019-03-10T23:23:35.530Z,12.92
2019-03-10T23:26:05.912Z,12.89
2019-03-10T23:28:36.629Z,12.77
2019-03-10T23:31:07.351Z,12.85
2019-03-10T23:33:38.081Z,12.73
2019-03-10T23:36:08.393Z,12.74
2019-03-10T23:38:38.686Z,12.76
2019-03-10T23:41:09.378Z,12.75
2019-03-10T23:43:39.695Z,12.79
2019-03-10T23:46:09.971Z,12.96
2019-03-10T23:48:40.644Z,13.08
2019-03-10T23:51:11.247Z,13.21
2019-03-10T23:53:41.807Z,13.30
2019-03-10T23:56:12.605Z,13.34
2019-03-10T23:58:43.325Z,13.31
